createdAt,value
2017-12-26T00:01:13.692Z,-0.10
2017-12-26T00:03:42.179Z,-0.20
2017-12-26T00:06:09.930Z,-0.20
2017-12-26T00:11:09.497Z,-0.10
2017-12-26T00:13:37.158Z,-0.10
2017-12-26T00:16:04.871Z,0.00
2017-12-26T00:18:32.589Z,-0.10
2017-12-26T00:21:00.287Z,-0.10
2017-12-26T00:23:28.014Z,-0.20
2017-12-26T00:25:55.689Z,-0.20
2017-12-26T00:28:23.486Z,-0.40
2017-12-26T00:30:51.266Z,-0.60
2017-12-26T00:33:19.001Z,-0.70
2017-12-26T00:35:46.779Z,-0.70
2017-12-26T00:38:14.565Z,-0.60
2017-12-26T00:40:42.311Z,-0.50
2017-12-26T00:43:09.965Z,-0.70
2017-12-26T00:45:37.732Z,-1.00
2017-12-26T00:48:05.388Z,-1.20
2017-12-26T00:50:33.034Z,-1.20
2017-12-26T00:53:00.796Z,-1.30
2017-12-26T00:55:28.508Z,-1.30
2017-12-26T00:57:56.216Z,-1.50
2017-12-26T01:00:24.871Z,-1.50
2017-12-26T01:02:52.775Z,-1.50
2017-12-26T01:05:20.539Z,-1.60
2017-12-26T01:07:48.188Z,-1.50
2017-12-26T01:10:15.929Z,-1.30
2017-12-26T01:12:43.740Z,-1.30
2017-12-26T01:15:11.558Z,-1.50
2017-12-26T01:17:39.257Z,-1.60
2017-12-26T01:20:07.022Z,-1.70
2017-12-26T01:22:34.715Z,-1.70
2017-12-26T01:25:02.491Z,-1.60
2017-12-26T01:27:30.226Z,-1.70
2017-12-26T01:29:58.718Z,-2.50
2017-12-26T01:32:26.468Z,-2.50
2017-12-26T01:34:54.173Z,-2.50
2017-12-26T01:37:21.889Z,-2.50
2017-12-26T01:39:49.657Z,-2.30
2017-12-26T01:42:18.184Z,-1.70
2017-12-26T01:44:46.681Z,-2.10
2017-12-26T01:47:14.426Z,-2.10
2017-12-26T01:49:42.155Z,-2.40
2017-12-26T01:52:10.713Z,-2.80
2017-12-26T01:54:38.483Z,-2.80
2017-12-26T01:57:06.150Z,-2.90
2017-12-26T01:59:33.860Z,-2.70
2017-12-26T02:02:01.559Z,-2.50
2017-12-26T02:04:29.265Z,-2.10
2017-12-26T02:06:56.978Z,-2.10
2017-12-26T02:09:24.646Z,-2.50
2017-12-26T02:11:52.391Z,-2.80
2017-12-26T02:14:20.142Z,-3.10
2017-12-26T02:16:47.873Z,-3.10
2017-12-26T02:19:15.570Z,-2.90
2017-12-26T02:21:43.272Z,-2.70
2017-12-26T02:24:10.896Z,-2.60
2017-12-26T02:26:38.583Z,-2.40
2017-12-26T02:29:06.249Z,-2.30
2017-12-26T02:31:33.860Z,-2.20
2017-12-26T02:34:01.723Z,-2.40
2017-12-26T02:36:29.416Z,-2.50
2017-12-26T02:38:57.199Z,-2.60
2017-12-26T02:41:24.924Z,-2.50
2017-12-26T02:43:52.722Z,-2.40
2017-12-26T02:46:20.452Z,-2.20
2017-12-26T02:48:48.212Z,-2.10
2017-12-26T02:51:15.915Z,-2.10
2017-12-26T02:56:15.393Z,-2.00
2017-12-26T02:58:43.080Z,-2.00
2017-12-26T03:01:10.841Z,-2.00
2017-12-26T03:03:38.559Z,-2.00
2017-12-26T03:06:06.312Z,-1.90
2017-12-26T03:08:34.012Z,-2.00
2017-12-26T03:11:01.710Z,-2.00
2017-12-26T03:13:29.459Z,-1.90
2017-12-26T03:15:57.168Z,-1.80
2017-12-26T03:18:24.908Z,-1.90
2017-12-26T03:20:52.545Z,-2.00
2017-12-26T03:23:20.320Z,-2.10
2017-12-26T03:25:48.061Z,-2.20
2017-12-26T03:28:15.781Z,-2.40
2017-12-26T03:30:43.461Z,-2.40
2017-12-26T03:33:11.127Z,-2.40
2017-12-26T03:35:38.799Z,-2.40
2017-12-26T03:38:06.508Z,-2.60
2017-12-26T03:40:34.259Z,-2.80
2017-12-26T03:43:02.739Z,-2.80
2017-12-26T03:45:30.446Z,-2.90
2017-12-26T03:47:58.198Z,-2.70
2017-12-26T03:50:25.959Z,-2.50
2017-12-26T03:52:53.669Z,-2.30
2017-12-26T03:55:22.187Z,-2.10
2017-12-26T03:57:49.947Z,-2.10
2017-12-26T04:00:17.675Z,-2.00
2017-12-26T04:02:45.433Z,-1.90
2017-12-26T04:05:13.962Z,-2.10
2017-12-26T04:07:41.744Z,-2.10
2017-12-26T04:10:09.452Z,-2.20
2017-12-26T04:12:37.162Z,-2.20
2017-12-26T04:15:04.875Z,-2.40
2017-12-26T04:17:32.521Z,-2.70
2017-12-26T04:20:00.262Z,-2.90
2017-12-26T04:22:27.969Z,-3.10
2017-12-26T04:24:55.662Z,-3.00
2017-12-26T04:27:23.350Z,-2.90
2017-12-26T04:29:51.045Z,-3.00
2017-12-26T04:32:18.782Z,-3.00
2017-12-26T04:34:46.512Z,-3.00
2017-12-26T04:37:15.083Z,-2.90
2017-12-26T04:39:42.803Z,-3.00
2017-12-26T04:42:10.522Z,-2.90
2017-12-26T04:44:38.281Z,-2.70
2017-12-26T04:47:06.010Z,-2.30
2017-12-26T04:49:33.752Z,-2.10
2017-12-26T04:52:01.434Z,-1.90
2017-12-26T04:54:29.142Z,-1.80
2017-12-26T04:56:56.841Z,-1.70
2017-12-26T04:59:24.544Z,-1.70
2017-12-26T05:01:52.219Z,-1.80
2017-12-26T05:04:19.902Z,-1.90
2017-12-26T05:06:47.643Z,-2.20
2017-12-26T05:09:15.362Z,-2.50
2017-12-26T05:11:43.108Z,-2.70
2017-12-26T05:14:10.776Z,-2.80
2017-12-26T05:16:38.492Z,-2.90
2017-12-26T05:19:06.228Z,-2.80
2017-12-26T05:21:33.964Z,-2.80
2017-12-26T05:24:01.660Z,-2.70
2017-12-26T05:26:29.344Z,-2.50
2017-12-26T05:28:57.049Z,-2.30
2017-12-26T05:31:24.742Z,-2.10
2017-12-26T05:33:52.519Z,-2.30
2017-12-26T05:36:20.319Z,-2.40
2017-12-26T05:38:48.079Z,-2.50
2017-12-26T05:41:15.753Z,-2.40
2017-12-26T05:43:43.499Z,-2.30
2017-12-26T05:46:11.221Z,-2.30
2017-12-26T05:48:38.920Z,-2.30
2017-12-26T05:51:06.585Z,-2.40
2017-12-26T05:53:34.287Z,-2.30
2017-12-26T05:56:02.065Z,-2.20
2017-12-26T05:58:29.889Z,-2.10
2017-12-26T06:00:57.603Z,-2.00
2017-12-26T06:03:25.334Z,-2.00
2017-12-26T06:05:53.050Z,-1.90
2017-12-26T06:08:20.746Z,-1.80
2017-12-26T06:10:48.502Z,-1.70
2017-12-26T06:13:16.250Z,-1.60
2017-12-26T06:15:44.072Z,-1.50
2017-12-26T06:18:11.900Z,-1.40
2017-12-26T06:20:39.860Z,-1.40
2017-12-26T06:23:07.859Z,-1.30
2017-12-26T06:25:36.836Z,-1.20
2017-12-26T06:28:04.588Z,-1.30
2017-12-26T06:30:32.326Z,-1.50
2017-12-26T06:33:00.060Z,-1.60
2017-12-26T06:35:27.837Z,-1.70
2017-12-26T06:37:56.379Z,-1.70
2017-12-26T06:40:24.265Z,-1.70
2017-12-26T06:42:52.042Z,-1.70
2017-12-26T06:45:19.824Z,-1.60
2017-12-26T06:47:47.659Z,-1.50
2017-12-26T06:50:15.375Z,-1.50
2017-12-26T06:52:43.178Z,-1.40
2017-12-26T06:55:11.821Z,-1.00
2017-12-26T06:57:39.599Z,-1.10
2017-12-26T07:00:08.130Z,-0.20
2017-12-26T07:02:35.970Z,-0.20
2017-12-26T07:05:03.672Z,0.00
2017-12-26T07:07:31.426Z,0.10
2017-12-26T07:09:59.254Z,0.10
2017-12-26T07:12:27.018Z,0.20
2017-12-26T07:14:54.747Z,0.20
2017-12-26T07:17:22.644Z,0.30
2017-12-26T07:19:50.440Z,0.40
2017-12-26T07:22:23.053Z,0.40
2017-12-26T07:24:50.871Z,0.50
2017-12-26T07:27:18.666Z,0.50
2017-12-26T07:29:46.535Z,0.50
2017-12-26T07:32:14.223Z,0.60
2017-12-26T07:34:42.871Z,0.80
2017-12-26T07:37:11.367Z,0.80
2017-12-26T07:39:39.160Z,0.90
2017-12-26T07:42:06.945Z,0.90
2017-12-26T07:44:34.764Z,1.00
2017-12-26T07:47:02.529Z,1.20
2017-12-26T07:49:30.316Z,1.30
2017-12-26T07:51:58.181Z,1.40
2017-12-26T07:54:25.964Z,1.40
2017-12-26T07:56:53.802Z,1.40
2017-12-26T07:59:21.560Z,1.40
2017-12-26T08:01:49.386Z,1.50
2017-12-26T08:04:18.201Z,1.60
2017-12-26T08:06:46.103Z,1.60
2017-12-26T08:09:13.899Z,1.60
2017-12-26T08:11:41.738Z,1.70
2017-12-26T08:14:09.530Z,1.70
2017-12-26T08:16:38.061Z,1.70
2017-12-26T08:19:05.803Z,1.70
2017-12-26T08:21:33.599Z,1.70
2017-12-26T08:24:01.302Z,1.80
2017-12-26T08:26:29.060Z,2.00
2017-12-26T08:28:56.881Z,2.10
2017-12-26T08:31:24.647Z,2.20
2017-12-26T08:33:52.431Z,2.30
2017-12-26T08:36:21.068Z,2.50
2017-12-26T08:38:48.797Z,2.50
2017-12-26T08:41:16.573Z,2.50
2017-12-26T08:43:45.195Z,3.00
2017-12-26T08:46:13.020Z,3.00
2017-12-26T08:48:40.791Z,3.20
2017-12-26T08:51:08.671Z,3.40
2017-12-26T08:53:36.500Z,3.50
2017-12-26T08:56:04.263Z,3.60
2017-12-26T08:58:32.130Z,3.70
2017-12-26T09:00:59.899Z,3.90
2017-12-26T09:03:27.691Z,4.10
2017-12-26T09:05:55.586Z,4.30
2017-12-26T09:08:23.365Z,5.00
2017-12-26T09:10:51.141Z,5.70
2017-12-26T09:13:18.971Z,6.40
2017-12-26T09:15:47.246Z,7.00
2017-12-26T09:18:15.786Z,8.10
2017-12-26T09:20:43.644Z,8.10
2017-12-26T09:23:11.405Z,8.60
2017-12-26T09:25:39.136Z,8.90
2017-12-26T09:28:06.949Z,9.10
2017-12-26T09:30:34.676Z,9.50
2017-12-26T09:33:02.521Z,9.80
2017-12-26T09:35:30.430Z,10.10
2017-12-26T09:37:58.253Z,9.80
2017-12-26T09:40:26.081Z,9.40
2017-12-26T09:42:54.640Z,8.70
2017-12-26T09:45:22.417Z,8.70
2017-12-26T09:47:50.195Z,8.50
2017-12-26T09:50:17.936Z,8.20
2017-12-26T09:52:46.471Z,7.50
2017-12-26T09:55:14.982Z,7.10
2017-12-26T09:57:42.937Z,7.10
2017-12-26T10:00:10.679Z,6.80
2017-12-26T10:02:38.479Z,6.50
2017-12-26T10:05:06.283Z,6.50
2017-12-26T10:07:34.043Z,6.50
2017-12-26T10:10:01.848Z,6.50
2017-12-26T10:12:29.746Z,6.50
2017-12-26T10:14:57.587Z,6.50
2017-12-26T10:17:26.120Z,6.70
2017-12-26T10:19:53.902Z,6.70
2017-12-26T10:22:21.634Z,6.90
2017-12-26T10:24:49.461Z,7.00
2017-12-26T10:27:17.299Z,7.10
2017-12-26T10:29:45.076Z,7.00
2017-12-26T10:32:12.821Z,7.10
2017-12-26T10:34:40.545Z,7.00
2017-12-26T10:37:08.368Z,7.00
2017-12-26T10:39:36.907Z,7.00
2017-12-26T10:42:04.785Z,7.00
2017-12-26T10:44:33.330Z,7.30
2017-12-26T10:47:01.161Z,7.20
2017-12-26T10:49:28.904Z,7.40
2017-12-26T10:51:56.723Z,7.50
2017-12-26T10:54:24.481Z,7.60
2017-12-26T10:56:52.245Z,7.80
2017-12-26T10:59:20.107Z,8.10
2017-12-26T11:01:47.862Z,8.20
2017-12-26T11:04:15.680Z,8.30
2017-12-26T11:06:43.551Z,8.40
2017-12-26T11:09:11.314Z,8.50
2017-12-26T11:11:39.146Z,8.60
2017-12-26T11:14:06.991Z,8.70
2017-12-26T11:16:34.746Z,8.70
2017-12-26T11:19:02.601Z,8.60
2017-12-26T11:21:30.440Z,8.40
2017-12-26T11:23:58.400Z,8.30
2017-12-26T11:26:26.213Z,8.30
2017-12-26T11:28:54.116Z,8.30
2017-12-26T11:31:21.939Z,8.30
2017-12-26T11:33:49.670Z,8.20
2017-12-26T11:36:19.192Z,8.10
2017-12-26T11:38:47.757Z,8.10
2017-12-26T11:41:15.527Z,8.10
2017-12-26T11:43:43.340Z,8.00
2017-12-26T11:46:11.120Z,7.90
2017-12-26T11:48:38.967Z,7.80
2017-12-26T11:51:06.823Z,7.80
2017-12-26T11:53:34.641Z,7.80
2017-12-26T11:56:02.521Z,7.80
2017-12-26T11:58:30.393Z,7.90
2017-12-26T12:00:58.241Z,7.90
2017-12-26T12:03:26.121Z,8.00
2017-12-26T12:05:53.918Z,8.00
2017-12-26T12:08:21.742Z,8.10
2017-12-26T12:10:49.597Z,8.00
2017-12-26T12:13:17.369Z,8.00
2017-12-26T12:15:45.143Z,8.00
2017-12-26T12:18:13.828Z,8.00
2017-12-26T12:20:41.573Z,8.00
2017-12-26T12:23:09.411Z,8.00
2017-12-26T12:25:37.249Z,8.00
2017-12-26T12:28:04.968Z,8.00
2017-12-26T12:30:32.742Z,7.90
2017-12-26T12:33:00.516Z,7.90
2017-12-26T12:35:28.353Z,7.90
2017-12-26T12:37:57.020Z,7.90
2017-12-26T12:40:24.861Z,7.90
2017-12-26T12:42:52.742Z,7.90
2017-12-26T12:45:20.472Z,7.90
2017-12-26T12:47:48.260Z,7.90
2017-12-26T12:50:16.193Z,7.90
2017-12-26T12:52:44.050Z,7.90
2017-12-26T12:55:11.886Z,7.90
2017-12-26T12:57:39.690Z,7.90
2017-12-26T13:00:07.472Z,7.90
2017-12-26T13:02:35.377Z,7.90
2017-12-26T13:05:03.167Z,7.90
2017-12-26T13:07:30.983Z,8.00
2017-12-26T13:09:58.740Z,8.10
2017-12-26T13:12:26.629Z,8.10
2017-12-26T13:14:55.251Z,8.30
2017-12-26T13:17:23.036Z,8.30
2017-12-26T13:19:50.861Z,8.30
2017-12-26T13:22:18.686Z,8.40
2017-12-26T13:24:46.538Z,8.50
2017-12-26T13:27:14.403Z,8.50
2017-12-26T13:29:42.231Z,8.50
2017-12-26T13:32:10.136Z,8.50
2017-12-26T13:34:38.814Z,8.50
2017-12-26T13:37:06.524Z,8.60
2017-12-26T13:39:34.361Z,8.50
2017-12-26T13:42:02.119Z,8.60
2017-12-26T13:44:29.940Z,8.60
2017-12-26T13:46:57.711Z,8.60
2017-12-26T13:49:25.537Z,8.50
2017-12-26T13:51:53.331Z,8.50
2017-12-26T13:54:21.047Z,8.40
2017-12-26T13:56:48.844Z,8.50
2017-12-26T13:59:16.723Z,8.30
2017-12-26T14:01:44.407Z,8.00
2017-12-26T14:04:12.234Z,7.90
2017-12-26T14:06:40.014Z,8.00
2017-12-26T14:09:08.591Z,7.40
2017-12-26T14:11:36.410Z,7.40
2017-12-26T14:14:04.162Z,7.40
2017-12-26T14:16:31.899Z,7.40
2017-12-26T14:18:59.760Z,7.40
2017-12-26T14:21:28.381Z,7.50
2017-12-26T14:23:56.273Z,7.50
2017-12-26T14:26:24.081Z,7.60
2017-12-26T14:28:51.830Z,7.50
2017-12-26T14:31:19.602Z,7.50
2017-12-26T14:33:47.566Z,7.50
2017-12-26T14:36:15.293Z,7.50
2017-12-26T14:38:43.004Z,7.40
2017-12-26T14:41:10.863Z,7.30
2017-12-26T14:43:38.626Z,7.30
2017-12-26T14:46:06.563Z,7.30
2017-12-26T14:48:34.427Z,7.30
2017-12-26T14:51:02.220Z,7.40
2017-12-26T14:53:29.968Z,7.30
2017-12-26T14:55:57.766Z,7.30
2017-12-26T14:58:25.584Z,7.10
2017-12-26T15:00:53.362Z,6.90
2017-12-26T15:03:21.186Z,6.80
2017-12-26T15:05:49.086Z,6.70
2017-12-26T15:08:16.845Z,6.70
2017-12-26T15:10:44.659Z,6.60
2017-12-26T15:13:12.410Z,6.50
2017-12-26T15:15:40.108Z,6.40
2017-12-26T15:18:08.000Z,6.30
2017-12-26T15:20:35.787Z,6.30
2017-12-26T15:23:03.624Z,6.30
2017-12-26T15:25:32.897Z,6.20
2017-12-26T15:28:01.684Z,6.20
2017-12-26T15:30:30.204Z,6.30
2017-12-26T15:32:58.065Z,6.30
2017-12-26T15:35:25.848Z,6.30
2017-12-26T15:37:53.900Z,6.30
2017-12-26T15:40:21.730Z,6.30
2017-12-26T15:42:49.518Z,6.40
2017-12-26T15:45:17.451Z,6.30
2017-12-26T15:47:45.270Z,6.30
2017-12-26T15:50:13.076Z,6.30
2017-12-26T15:52:40.848Z,6.30
2017-12-26T15:55:08.748Z,6.30
2017-12-26T15:57:36.600Z,6.30
2017-12-26T16:00:04.360Z,6.30
2017-12-26T16:02:32.726Z,6.20
2017-12-26T16:05:00.547Z,6.20
2017-12-26T16:07:28.598Z,6.10
2017-12-26T16:09:56.430Z,6.10
2017-12-26T16:12:25.005Z,6.00
2017-12-26T16:14:52.724Z,5.90
2017-12-26T16:17:20.542Z,5.90
2017-12-26T16:19:48.322Z,5.90
2017-12-26T16:22:16.081Z,5.90
2017-12-26T16:24:44.022Z,5.90
2017-12-26T16:27:11.762Z,5.90
2017-12-26T16:29:39.601Z,5.90
2017-12-26T16:32:07.425Z,5.90
2017-12-26T16:34:35.221Z,5.80
2017-12-26T16:37:03.106Z,5.80
2017-12-26T16:39:30.969Z,5.90
2017-12-26T16:41:59.035Z,5.90
2017-12-26T16:44:27.062Z,5.90
2017-12-26T16:46:54.926Z,5.90
2017-12-26T16:49:22.707Z,5.80
2017-12-26T16:51:50.521Z,5.70
2017-12-26T16:54:18.430Z,5.70
2017-12-26T16:56:46.242Z,5.70
2017-12-26T16:59:13.983Z,5.60
2017-12-26T17:01:41.844Z,5.60
2017-12-26T17:04:09.604Z,5.50
2017-12-26T17:06:37.407Z,5.50
2017-12-26T17:09:05.979Z,5.30
2017-12-26T17:11:33.714Z,5.30
2017-12-26T17:14:01.568Z,5.30
2017-12-26T17:16:29.400Z,5.30
2017-12-26T17:18:57.185Z,5.20
2017-12-26T17:21:24.907Z,5.10
2017-12-26T17:23:52.682Z,5.00
2017-12-26T17:26:20.384Z,4.60
2017-12-26T17:28:48.203Z,4.30
2017-12-26T17:31:16.483Z,4.00
2017-12-26T17:33:44.450Z,3.80
2017-12-26T17:36:13.212Z,3.60
2017-12-26T17:38:41.206Z,3.60
2017-12-26T17:41:09.163Z,3.50
2017-12-26T17:43:36.947Z,3.40
2017-12-26T17:46:04.919Z,3.50
2017-12-26T17:48:32.727Z,3.50
2017-12-26T17:51:01.531Z,4.00
2017-12-26T17:53:30.266Z,4.30
2017-12-26T17:55:58.161Z,4.30
2017-12-26T17:58:26.081Z,4.50
2017-12-26T18:03:28.589Z,4.70
2017-12-26T18:06:05.470Z,4.80
2017-12-26T18:08:33.383Z,4.80
2017-12-26T18:11:01.362Z,4.90
2017-12-26T18:13:29.385Z,4.90
2017-12-26T18:15:57.493Z,5.00
2017-12-26T18:18:25.664Z,4.90
2017-12-26T18:20:56.881Z,4.70
2017-12-26T18:23:24.866Z,4.70
2017-12-26T18:25:52.788Z,4.70
2017-12-26T18:28:20.626Z,4.80
2017-12-26T18:30:50.324Z,4.90
2017-12-26T18:33:18.426Z,5.00
2017-12-26T18:35:46.428Z,5.00
2017-12-26T18:38:15.427Z,5.10
2017-12-26T18:40:44.863Z,5.10
2017-12-26T18:43:12.860Z,5.10
2017-12-26T18:45:45.897Z,5.10
2017-12-26T18:48:13.945Z,5.10
2017-12-26T18:50:41.952Z,5.10
2017-12-26T18:53:09.945Z,5.10
2017-12-26T18:55:38.301Z,5.10
2017-12-26T18:58:06.486Z,5.10
2017-12-26T19:00:40.128Z,5.10
2017-12-26T19:03:08.161Z,5.20
2017-12-26T19:05:36.079Z,5.20
2017-12-26T19:08:04.221Z,5.20
2017-12-26T19:10:32.381Z,5.30
2017-12-26T19:13:00.408Z,5.30
2017-12-26T19:15:29.119Z,5.40
2017-12-26T19:17:57.740Z,5.40
2017-12-26T19:20:25.739Z,5.40
2017-12-26T19:22:53.760Z,5.30
2017-12-26T19:25:21.759Z,5.20
2017-12-26T19:27:49.868Z,5.20
2017-12-26T19:30:17.979Z,5.10
2017-12-26T19:32:45.981Z,5.10
2017-12-26T19:35:14.028Z,5.00
2017-12-26T19:37:41.907Z,5.00
2017-12-26T19:40:09.927Z,5.00
2017-12-26T19:42:38.083Z,5.00
2017-12-26T19:45:08.726Z,5.00
2017-12-26T19:47:36.803Z,5.00
2017-12-26T19:50:04.725Z,5.00
2017-12-26T19:52:32.632Z,5.00
2017-12-26T19:55:00.704Z,5.10
2017-12-26T19:57:28.661Z,5.10
2017-12-26T19:59:56.787Z,5.20
2017-12-26T20:02:24.770Z,5.20
2017-12-26T20:04:53.167Z,5.20
2017-12-26T20:07:21.080Z,5.20
2017-12-26T20:09:49.180Z,5.30
2017-12-26T20:12:17.283Z,5.30
2017-12-26T20:14:45.487Z,5.30
2017-12-26T20:17:13.570Z,5.40
2017-12-26T20:19:41.625Z,5.30
2017-12-26T20:22:09.704Z,5.10
2017-12-26T20:24:37.820Z,5.00
2017-12-26T20:27:05.860Z,4.70
2017-12-26T20:29:33.921Z,4.60
2017-12-26T20:32:01.958Z,4.50
2017-12-26T20:34:30.190Z,4.50
2017-12-26T20:36:58.309Z,4.50
2017-12-26T20:39:26.404Z,4.60
2017-12-26T20:41:54.525Z,4.60
2017-12-26T20:44:22.667Z,4.70
2017-12-26T20:46:50.740Z,4.70
2017-12-26T20:49:18.841Z,4.60
2017-12-26T20:51:46.842Z,4.50
2017-12-26T20:54:15.002Z,4.40
2017-12-26T20:56:43.142Z,4.40
2017-12-26T20:59:11.383Z,4.40
2017-12-26T21:01:39.589Z,4.20
2017-12-26T21:04:07.710Z,4.10
2017-12-26T21:06:35.820Z,4.00
2017-12-26T21:09:04.107Z,3.90
2017-12-26T21:11:32.209Z,3.90
2017-12-26T21:14:01.324Z,3.50
2017-12-26T21:16:30.545Z,3.50
2017-12-26T21:18:58.503Z,3.40
2017-12-26T21:21:26.725Z,3.30
2017-12-26T21:23:54.824Z,3.30
2017-12-26T21:26:24.482Z,3.30
2017-12-26T21:28:52.440Z,3.30
2017-12-26T21:31:20.282Z,3.40
2017-12-26T21:33:48.660Z,3.40
2017-12-26T21:36:16.500Z,3.50
2017-12-26T21:38:44.340Z,3.50
2017-12-26T21:41:12.300Z,3.50
2017-12-26T21:43:40.199Z,3.50
2017-12-26T21:46:08.482Z,3.50
2017-12-26T21:48:37.242Z,3.70
2017-12-26T21:51:05.222Z,3.70
2017-12-26T21:53:33.761Z,3.60
2017-12-26T21:56:02.609Z,3.40
2017-12-26T21:58:30.625Z,3.40
2017-12-26T22:00:59.061Z,3.20
2017-12-26T22:03:27.100Z,3.10
2017-12-26T22:05:55.951Z,3.20
2017-12-26T22:08:23.921Z,3.10
2017-12-26T22:10:51.880Z,3.20
2017-12-26T22:13:20.863Z,3.10
2017-12-26T22:15:48.749Z,3.10
2017-12-26T22:18:16.742Z,3.00
2017-12-26T22:20:47.102Z,2.70
2017-12-26T22:23:16.586Z,2.60
2017-12-26T22:25:44.587Z,2.40
2017-12-26T22:28:12.448Z,2.40
2017-12-26T22:30:40.663Z,2.40
2017-12-26T22:33:08.959Z,2.40
2017-12-26T22:35:36.901Z,2.40
2017-12-26T22:38:05.100Z,2.50
2017-12-26T22:40:33.040Z,2.60
2017-12-26T22:43:01.540Z,2.30
2017-12-26T22:45:29.321Z,2.30
2017-12-26T22:47:57.119Z,2.40
2017-12-26T22:50:24.899Z,2.50
2017-12-26T22:52:52.688Z,2.50
2017-12-26T22:55:20.403Z,2.50
2017-12-26T22:57:48.363Z,2.50
2017-12-26T23:00:17.310Z,2.50
2017-12-26T23:02:45.071Z,2.50
2017-12-26T23:05:12.944Z,2.60
2017-12-26T23:07:40.963Z,2.80
2017-12-26T23:10:09.664Z,3.00
2017-12-26T23:12:37.564Z,3.00
2017-12-26T23:15:11.064Z,3.00
2017-12-26T23:17:44.325Z,3.00
2017-12-26T23:20:17.705Z,3.10
2017-12-26T23:22:45.612Z,3.20
2017-12-26T23:25:19.064Z,3.30
2017-12-26T23:27:52.384Z,3.30
2017-12-26T23:30:25.824Z,2.80
2017-12-26T23:36:04.584Z,2.30
2017-12-26T23:38:38.066Z,2.10
2017-12-26T23:41:11.424Z,2.20
2017-12-26T23:43:52.404Z,2.20
2017-12-26T23:46:26.242Z,2.40
2017-12-26T23:48:59.901Z,2.50
2017-12-26T23:51:33.361Z,2.60
2017-12-26T23:54:07.181Z,2.30
2017-12-26T23:56:40.722Z,2.20
2017-12-26T23:59:14.081Z,2.10
